Lamco Airport

Jump to: basic info | weather | comments

Related pages: nearby airports | nearby navaids | notams | map

Basic information (top)

Codes: UCN GLLB
Location: lon 5.867000, lat -10.050000, elev 30 ft / 9 m msl
Status: small_airport
Scheduled airline service: no
Links: Wikipedia Mobile

Weather (top)

Current conditions for Roberts International Airport 29nm (53km) NW (rec'd 2015/01/29 16:00Z):

GLRB 291600Z 23010KT 9999 SCT024 32/24 Q1009 NOSIG

Airport forecast for Roberts International Airport 29nm (53km) NW (rec'd 2015/01/29 12:51Z):

TAF GLRB 291000Z 2912/3018 29010KT 9999 SCT018 FM 291500 24008KT 8000 TS BKN020 FEW027CB 
      TEMPO 2921/3002 02004KT 5000 BR SCT004 BKN014

Latest comments (top)

No comments yet for Lamco Airport

More... (top)

See also NOTAMs and nearby airports and navaids, or visit the Lamco Airport page at the main OurAirports website..